^^
Meteo Knjazevac Station Historical Data
Daily Summary for May 15, 2022 Units:  Both    English   Metric
Daily Weekly Monthly Yearly Custom
  High: Low: Average:
Temperature: 83.5 °F /  28.6 °C 48.6 °F /  9.2 °C 66.7 °F /  19.3 °C
Dew Point: 58.2 °F /  14.6 °C 45.2 °F /  7.3 °C 52 °F /  11.1 °C
Humidity: 93% 38% 63%
Wind Speed: 8mph /  12.9km/h - 1.8mph /  2.9km/h
Wind Gust: 13mph /  20.9km/h - -
Wind- - SSW
Pressure: 30.15 in /  1020.9 hPa 30.08 in /  1018.5 hPa -
Precipitation: 0.00 in /  0 mm    
Historical Graphs
 
 
Tabular Data for May 15, 2022
Time Temperature Dew Point Pressure Wind Wind Speed Wind Gust Humidity Rainfall Rate (Hourly) solar Conditions
00:00 58.6 °F /  14.8 °C 51.8 °F /  11 °C 30.11in /  1019.5hPa SSE 2mph /  3.2km/h 4mph /  6.4km/h 78% 0.00in /  0mm 0 W/m2
00:10 58.1 °F /  14.5 °C 51.3 °F /  10.7 °C 30.11in /  1019.5hPa NNE 1mph /  1.6km/h 3mph /  4.8km/h 78% 0.00in /  0mm 0 W/m2
00:20 57.9 °F /  14.4 °C 51.1 °F /  10.6 °C 30.11in /  1019.5hPa Calm   2mph /  3.2km/h 78% 0.00in /  0mm 0 W/m2
00:30 57.4 °F /  14.1 °C 50.6 °F /  10.3 °C 30.11in /  1019.5hPa Calm   2mph /  3.2km/h 78% 0.00in /  0mm 0 W/m2
00:40 57.2 °F /  14 °C 50.7 °F /  10.4 °C 30.11in /  1019.5hPa NNE 2mph /  3.2km/h 2mph /  3.2km/h 79% 0.00in /  0mm 0 W/m2
00:50 57 °F /  13.9 °C 50.5 °F /  10.3 °C 30.12in /  1019.9hPa Calm   2mph /  3.2km/h 79% 0.00in /  0mm 0 W/m2
01:00 56.8 °F /  13.8 °C 50.3 °F /  10.2 °C 30.12in /  1019.9hPa Calm   2mph /  3.2km/h 79% 0.00in /  0mm 0 W/m2
01:10 56.5 °F /  13.6 °C 50 °F /  10 °C 30.12in /  1019.9hPa Calm   2mph /  3.2km/h 79% 0.00in /  0mm 0 W/m2
01:20 56.2 °F /  13.4 °C 50.2 °F /  10.1 °C 30.12in /  1019.9hPa Calm   4mph /  6.4km/h 80% 0.00in /  0mm 0 W/m2
01:30 55.9 °F /  13.3 °C 49.9 °F /  9.9 °C 30.12in /  1019.9hPa Calm   2mph /  3.2km/h 80% 0.00in /  0mm 0 W/m2
01:40 55.5 °F /  13.1 °C 49.5 °F /  9.7 °C 30.12in /  1019.9hPa Calm   2mph /  3.2km/h 80% 0.00in /  0mm 0 W/m2
01:50 55 °F /  12.8 °C 49 °F /  9.4 °C 30.12in /  1019.9hPa Calm   2mph /  3.2km/h 80% 0.00in /  0mm 0 W/m2
02:00 54.5 °F /  12.5 °C 48.5 °F /  9.2 °C 30.12in /  1019.9hPa Calm   2mph /  3.2km/h 80% 0.00in /  0mm 0 W/m2
02:10 54.1 °F /  12.3 °C 48.4 °F /  9.1 °C 30.12in /  1019.9hPa Calm   1mph /  1.6km/h 81% 0.00in /  0mm 0 W/m2
02:20 53.5 °F /  11.9 °C 47.9 °F /  8.8 °C 30.12in /  1019.9hPa WNW 1mph /  1.6km/h 2mph /  3.2km/h 81% 0.00in /  0mm 0 W/m2
02:30 52.9 °F /  11.6 °C 47.9 °F /  8.8 °C 30.12in /  1019.9hPa Calm   2mph /  3.2km/h 83% 0.00in /  0mm 0 W/m2
02:40 52.3 °F /  11.3 °C 47.3 °F /  8.5 °C 30.12in /  1019.9hPa Calm   2mph /  3.2km/h 83% 0.00in /  0mm 0 W/m2
02:50 52.2 °F /  11.2 °C 47.5 °F /  8.6 °C 30.12in /  1019.9hPa NW 1mph /  1.6km/h 2mph /  3.2km/h 84% 0.00in /  0mm 0 W/m2
03:00 52.2 °F /  11.2 °C 47.5 °F /  8.6 °C 30.12in /  1019.9hPa Calm   2mph /  3.2km/h 84% 0.00in /  0mm 0 W/m2
03:10 51.8 °F /  11 °C 47.4 °F /  8.6 °C 30.12in /  1019.9hPa Calm   2mph /  3.2km/h 85% 0.00in /  0mm 0 W/m2
03:20 51.8 °F /  11 °C 47.7 °F /  8.7 °C 30.12in /  1019.9hPa Calm   2mph /  3.2km/h 86% 0.00in /  0mm 0 W/m2
03:30 51.4 °F /  10.8 °C 47.1 °F /  8.4 °C 30.12in /  1019.9hPa NW 1mph /  1.6km/h 2mph /  3.2km/h 85% 0.00in /  0mm 0 W/m2
03:40 51.1 °F /  10.6 °C 46.7 °F /  8.2 °C 30.12in /  1019.9hPa Calm   3mph /  4.8km/h 85% 0.00in /  0mm 0 W/m2
03:50 50.7 °F /  10.4 °C 46.4 °F /  8 °C 30.12in /  1019.9hPa Calm   2mph /  3.2km/h 85% 0.00in /  0mm 0 W/m2
04:00 50.2 °F /  10.1 °C 45.8 °F /  7.7 °C 30.12in /  1019.9hPa Calm   2mph /  3.2km/h 85% 0.00in /  0mm 0 W/m2
04:10 49.9 °F /  9.9 °C 45.9 °F /  7.7 °C 30.13in /  1020.2hPa NNW 1mph /  1.6km/h 2mph /  3.2km/h 86% 0.00in /  0mm 0 W/m2
04:20 49.8 °F /  9.9 °C 46.4 °F /  8 °C 30.12in /  1019.9hPa NW 1mph /  1.6km/h 2mph /  3.2km/h 88% 0.00in /  0mm 0 W/m2
04:30 49.6 °F /  9.8 °C 45.6 °F /  7.6 °C 30.12in /  1019.9hPa Calm   2mph /  3.2km/h 86% 0.00in /  0mm 0 W/m2
04:40 49.5 °F /  9.7 °C 45.8 °F /  7.7 °C 30.13in /  1020.2hPa NW 1mph /  1.6km/h 2mph /  3.2km/h 87% 0.00in /  0mm 0 W/m2
04:50 49.5 °F /  9.7 °C 46.1 °F /  7.8 °C 30.13in /  1020.2hPa NNW 1mph /  1.6km/h 2mph /  3.2km/h 88% 0.00in /  0mm 0 W/m2
05:00 49.1 °F /  9.5 °C 46 °F /  7.8 °C 30.13in /  1020.2hPa NW 1mph /  1.6km/h 2mph /  3.2km/h 89% 0.00in /  0mm 0 W/m2
05:10 49.4 °F /  9.7 °C 46.3 °F /  7.9 °C 30.13in /  1020.2hPa Calm   2mph /  3.2km/h 89% 0.00in /  0mm 4 W/m2
05:20 49.1 °F /  9.5 °C 45.7 °F /  7.6 °C 30.13in /  1020.2hPa Calm   2mph /  3.2km/h 88% 0.00in /  0mm 9 W/m2
05:30 48.7 °F /  9.3 °C 45.3 °F /  7.4 °C 30.13in /  1020.2hPa Calm   2mph /  3.2km/h 88% 0.00in /  0mm 14 W/m2
05:40 48.7 °F /  9.3 °C 45.3 °F /  7.4 °C 30.13in /  1020.2hPa NW 1mph /  1.6km/h 2mph /  3.2km/h 88% 0.00in /  0mm 22 W/m2
05:50 48.6 °F /  9.2 °C 45.2 °F /  7.3 °C 30.14in /  1020.5hPa NW 1mph /  1.6km/h 2mph /  3.2km/h 88% 0.00in /  0mm 31 W/m2
06:00 48.6 °F /  9.2 °C 45.5 °F /  7.5 °C 30.13in /  1020.2hPa Calm   2mph /  3.2km/h 89% 0.00in /  0mm 38 W/m2
06:10 48.6 °F /  9.2 °C 45.5 °F /  7.5 °C 30.14in /  1020.5hPa Calm     89% 0.00in /  0mm 42 W/m2
06:20 48.7 °F /  9.3 °C 45.9 °F /  7.7 °C 30.14in /  1020.5hPa Calm   2mph /  3.2km/h 90% 0.00in /  0mm 63 W/m2
06:30 49.2 °F /  9.6 °C 46.7 °F /  8.2 °C 30.14in /  1020.5hPa NNE 1mph /  1.6km/h 3mph /  4.8km/h 91% 0.00in /  0mm 131 W/m2
06:40 49.9 °F /  9.9 °C 47.4 °F /  8.6 °C 30.14in /  1020.5hPa NE 1mph /  1.6km/h 4mph /  6.4km/h 91% 0.00in /  0mm 158 W/m2
06:50 50.7 °F /  10.4 °C 48.8 °F /  9.3 °C 30.14in /  1020.5hPa Calm   4mph /  6.4km/h 93% 0.00in /  0mm 200 W/m2
07:00 51.8 °F /  11 °C 49.5 °F /  9.7 °C 30.14in /  1020.5hPa East 2mph /  3.2km/h 5mph /  8km/h 92% 0.00in /  0mm 233 W/m2
07:10 52.9 °F /  11.6 °C 50.4 °F /  10.2 °C 30.15in /  1020.9hPa East 2mph /  3.2km/h 6mph /  9.7km/h 91% 0.00in /  0mm 269 W/m2
07:20 54.3 °F /  12.4 °C 51.4 °F /  10.8 °C 30.15in /  1020.9hPa ESE 2mph /  3.2km/h 4mph /  6.4km/h 90% 0.00in /  0mm 309 W/m2
07:30 55.5 °F /  13.1 °C 52.3 °F /  11.3 °C 30.15in /  1020.9hPa SSE 1mph /  1.6km/h 5mph /  8km/h 89% 0.00in /  0mm 312 W/m2
07:40 56.5 °F /  13.6 °C 53 °F /  11.7 °C 30.15in /  1020.9hPa South 1mph /  1.6km/h 3mph /  4.8km/h 88% 0.00in /  0mm 364 W/m2
07:50 57.6 °F /  14.2 °C 53.4 °F /  11.9 °C 30.15in /  1020.9hPa SW 1mph /  1.6km/h 2mph /  3.2km/h 86% 0.00in /  0mm 315 W/m2
08:00 58.6 °F /  14.8 °C 53.8 °F /  12.1 °C 30.15in /  1020.9hPa West 1mph /  1.6km/h 2mph /  3.2km/h 84% 0.00in /  0mm 410 W/m2
08:10 60 °F /  15.6 °C 53.8 °F /  12.1 °C 30.15in /  1020.9hPa SE 2mph /  3.2km/h 7mph /  11.3km/h 80% 0.00in /  0mm 446 W/m2
08:20 61.6 °F /  16.4 °C 54.3 °F /  12.4 °C 30.15in /  1020.9hPa ESE 1mph /  1.6km/h 7mph /  11.3km/h 77% 0.00in /  0mm 506 W/m2
08:30 63.8 °F /  17.7 °C 55.3 °F /  12.9 °C 30.15in /  1020.9hPa SW 1mph /  1.6km/h 4mph /  6.4km/h 74% 0.00in /  0mm 440 W/m2
08:40 65.1 °F /  18.4 °C 55.1 °F /  12.8 °C 30.15in /  1020.9hPa East 1mph /  1.6km/h 4mph /  6.4km/h 70% 0.00in /  0mm 548 W/m2
08:50 66.5 °F /  19.2 °C 55.6 °F /  13.1 °C 30.15in /  1020.9hPa ESE 3mph /  4.8km/h 6mph /  9.7km/h 68% 0.00in /  0mm 590 W/m2
09:00 67.5 °F /  19.7 °C 55.4 °F /  13 °C 30.15in /  1020.9hPa East 2mph /  3.2km/h 7mph /  11.3km/h 65% 0.00in /  0mm 599 W/m2
09:10 69 °F /  20.6 °C 56.3 °F /  13.5 °C 30.15in /  1020.9hPa ESE 2mph /  3.2km/h 7mph /  11.3km/h 64% 0.00in /  0mm 669 W/m2
09:20 70.3 °F /  21.3 °C 56.7 °F /  13.7 °C 30.15in /  1020.9hPa ESE 3mph /  4.8km/h 7mph /  11.3km/h 62% 0.00in /  0mm 566 W/m2
09:30 70.9 °F /  21.6 °C 56.3 °F /  13.5 °C 30.15in /  1020.9hPa ENE 3mph /  4.8km/h 8mph /  12.9km/h 60% 0.00in /  0mm 720 W/m2
09:40 71.8 °F /  22.1 °C 56.2 °F /  13.4 °C 30.15in /  1020.9hPa ENE 2mph /  3.2km/h 9mph /  14.5km/h 58% 0.00in /  0mm 481 W/m2
09:50 72 °F /  22.2 °C 56 °F /  13.3 °C 30.15in /  1020.9hPa NE 3mph /  4.8km/h 6mph /  9.7km/h 57% 0.00in /  0mm 736 W/m2
10:00 73.2 °F /  22.9 °C 56.1 °F /  13.4 °C 30.15in /  1020.9hPa North 1mph /  1.6km/h 5mph /  8km/h 55% 0.00in /  0mm 787 W/m2
10:10 73.9 °F /  23.3 °C 56.2 °F /  13.4 °C 30.15in /  1020.9hPa WSW 2mph /  3.2km/h 5mph /  8km/h 54% 0.00in /  0mm 808 W/m2
10:20 74.7 °F /  23.7 °C 55.9 °F /  13.3 °C 30.15in /  1020.9hPa WNW 1mph /  1.6km/h 7mph /  11.3km/h 52% 0.00in /  0mm 824 W/m2
10:30 75.3 °F /  24.1 °C 55.4 °F /  13 °C 30.15in /  1020.9hPa NW 3mph /  4.8km/h 8mph /  12.9km/h 50% 0.00in /  0mm 829 W/m2
10:40 76 °F /  24.4 °C 56 °F /  13.3 °C 30.15in /  1020.9hPa West 1mph /  1.6km/h 6mph /  9.7km/h 50% 0.00in /  0mm 290 W/m2
10:50 76.8 °F /  24.9 °C 56.2 °F /  13.4 °C 30.14in /  1020.5hPa WNW 7mph /  11.3km/h 9mph /  14.5km/h 49% 0.00in /  0mm 876 W/m2
11:00 77.4 °F /  25.2 °C 57.3 °F /  14.1 °C 30.14in /  1020.5hPa NNE 5mph /  8km/h 13mph /  20.9km/h 50% 0.00in /  0mm 890 W/m2
11:10 77.6 °F /  25.3 °C 55.8 °F /  13.2 °C 30.15in /  1020.9hPa NE 2mph /  3.2km/h 8mph /  12.9km/h 47% 0.00in /  0mm 364 W/m2
11:20 77.5 °F /  25.3 °C 55.7 °F /  13.2 °C 30.14in /  1020.5hPa NNE 7mph /  11.3km/h 12mph /  19.3km/h 47% 0.00in /  0mm 311 W/m2
11:30 77.7 °F /  25.4 °C 55.9 °F /  13.3 °C 30.14in /  1020.5hPa NW 2mph /  3.2km/h 7mph /  11.3km/h 47% 0.00in /  0mm 359 W/m2
11:40 77.4 °F /  25.2 °C 55.6 °F /  13.1 °C 30.14in /  1020.5hPa NW 5mph /  8km/h 10mph /  16.1km/h 47% 0.00in /  0mm 466 W/m2
11:50 77.7 °F /  25.4 °C 55.3 °F /  12.9 °C 30.14in /  1020.5hPa West 8mph /  12.9km/h 13mph /  20.9km/h 46% 0.00in /  0mm 330 W/m2
12:00 77.1 °F /  25.1 °C 55.3 °F /  12.9 °C 30.14in /  1020.5hPa WNW 3mph /  4.8km/h 10mph /  16.1km/h 47% 0.00in /  0mm 258 W/m2
12:10 76.7 °F /  24.8 °C 55 °F /  12.8 °C 30.14in /  1020.5hPa West 3mph /  4.8km/h 8mph /  12.9km/h 47% 0.00in /  0mm 319 W/m2
12:20 77.3 °F /  25.2 °C 55.5 °F /  13.1 °C 30.14in /  1020.5hPa West 2mph /  3.2km/h 8mph /  12.9km/h 47% 0.00in /  0mm 946 W/m2
12:30 77.7 °F /  25.4 °C 54.7 °F /  12.6 °C 30.13in /  1020.2hPa ESE 3mph /  4.8km/h 7mph /  11.3km/h 45% 0.00in /  0mm 356 W/m2
12:40 77.4 °F /  25.2 °C 55.6 °F /  13.1 °C 30.13in /  1020.2hPa NE 1mph /  1.6km/h 7mph /  11.3km/h 47% 0.00in /  0mm 278 W/m2
12:50 77.8 °F /  25.4 °C 56.5 °F /  13.6 °C 30.13in /  1020.2hPa SSE 1mph /  1.6km/h 6mph /  9.7km/h 48% 0.00in /  0mm 941 W/m2
13:00 78.8 °F /  26 °C 56.9 °F /  13.8 °C 30.13in /  1020.2hPa North 1mph /  1.6km/h 7mph /  11.3km/h 47% 0.00in /  0mm 615 W/m2
13:10 78.3 °F /  25.7 °C 56.4 °F /  13.6 °C 30.13in /  1020.2hPa NNW 2mph /  3.2km/h 6mph /  9.7km/h 47% 0.00in /  0mm 252 W/m2
13:20 78.8 °F /  26 °C 56.9 °F /  13.8 °C 30.13in /  1020.2hPa NNW 1mph /  1.6km/h 6mph /  9.7km/h 47% 0.00in /  0mm 654 W/m2
13:30 79 °F /  26.1 °C 57 °F /  13.9 °C 30.13in /  1020.2hPa WNW 2mph /  3.2km/h 5mph /  8km/h 47% 0.00in /  0mm 451 W/m2
13:40 79.9 °F /  26.6 °C 57.3 °F /  14.1 °C 30.12in /  1019.9hPa NW 3mph /  4.8km/h 7mph /  11.3km/h 46% 0.00in /  0mm 903 W/m2
13:50 80.8 °F /  27.1 °C 56.2 °F /  13.4 °C 30.12in /  1019.9hPa NE 3mph /  4.8km/h 12mph /  19.3km/h 43% 0.00in /  0mm 596 W/m2
14:00 80.1 °F /  26.7 °C 56.3 °F /  13.5 °C 30.12in /  1019.9hPa SSE 2mph /  3.2km/h 6mph /  9.7km/h 44% 0.00in /  0mm 583 W/m2
14:10 80.3 °F /  26.8 °C 56.4 °F /  13.6 °C 30.12in /  1019.9hPa North 5mph /  8km/h 12mph /  19.3km/h 44% 0.00in /  0mm 862 W/m2
14:20 81.1 °F /  27.3 °C 57.2 °F /  14 °C 30.12in /  1019.9hPa North 3mph /  4.8km/h 10mph /  16.1km/h 44% 0.00in /  0mm 845 W/m2
14:30 81.1 °F /  27.3 °C 56.5 °F /  13.6 °C 30.11in /  1019.5hPa NE 2mph /  3.2km/h 5mph /  8km/h 43% 0.00in /  0mm 827 W/m2
14:40 82 °F /  27.8 °C 57.3 °F /  14.1 °C 30.10in /  1019.2hPa WNW 3mph /  4.8km/h 8mph /  12.9km/h 43% 0.00in /  0mm 808 W/m2
14:50 82.4 °F /  28 °C 57.7 °F /  14.3 °C 30.10in /  1019.2hPa WNW 2mph /  3.2km/h 7mph /  11.3km/h 43% 0.00in /  0mm 788 W/m2
15:00 81.9 °F /  27.7 °C 56.6 °F /  13.7 °C 30.10in /  1019.2hPa South 3mph /  4.8km/h 6mph /  9.7km/h 42% 0.00in /  0mm 190 W/m2
15:10 81.7 °F /  27.6 °C 56.4 °F /  13.6 °C 30.10in /  1019.2hPa North 5mph /  8km/h 9mph /  14.5km/h 42% 0.00in /  0mm 741 W/m2
15:20 82.3 °F /  27.9 °C 56.9 °F /  13.8 °C 30.10in /  1019.2hPa NW 1mph /  1.6km/h 8mph /  12.9km/h 42% 0.00in /  0mm 720 W/m2
15:30 82.9 °F /  28.3 °C 57.5 °F /  14.2 °C 30.09in /  1018.8hPa North 3mph /  4.8km/h 12mph /  19.3km/h 42% 0.00in /  0mm 675 W/m2
15:40 82.4 °F /  28 °C 55.7 °F /  13.2 °C 30.10in /  1019.2hPa North 2mph /  3.2km/h 8mph /  12.9km/h 40% 0.00in /  0mm 670 W/m2
15:50 82.4 °F /  28 °C 57 °F /  13.9 °C 30.09in /  1018.8hPa NW 3mph /  4.8km/h 7mph /  11.3km/h 42% 0.00in /  0mm 643 W/m2
16:00 83 °F /  28.3 °C 58.2 °F /  14.6 °C 30.09in /  1018.8hPa North 3mph /  4.8km/h 8mph /  12.9km/h 43% 0.00in /  0mm 616 W/m2
16:10 83.1 °F /  28.4 °C 56.3 °F /  13.5 °C 30.09in /  1018.8hPa North 2mph /  3.2km/h 9mph /  14.5km/h 40% 0.00in /  0mm 588 W/m2
16:20 82.5 °F /  28.1 °C 55.7 °F /  13.2 °C 30.09in /  1018.8hPa NNW 1mph /  1.6km/h 6mph /  9.7km/h 40% 0.00in /  0mm 510 W/m2
16:30 82.6 °F /  28.1 °C 57.2 °F /  14 °C 30.09in /  1018.8hPa North 2mph /  3.2km/h 8mph /  12.9km/h 42% 0.00in /  0mm 252 W/m2
16:40 82.2 °F /  27.9 °C 55.5 °F /  13.1 °C 30.08in /  1018.5hPa NNE 3mph /  4.8km/h 8mph /  12.9km/h 40% 0.00in /  0mm 499 W/m2
16:50 82.7 °F /  28.2 °C 55.9 °F /  13.3 °C 30.08in /  1018.5hPa North 1mph /  1.6km/h 5mph /  8km/h 40% 0.00in /  0mm 469 W/m2
17:00 83.3 °F /  28.5 °C 56.5 °F /  13.6 °C 30.08in /  1018.5hPa North 3mph /  4.8km/h 8mph /  12.9km/h 40% 0.00in /  0mm 438 W/m2
17:10 83.5 °F /  28.6 °C 55.9 °F /  13.3 °C 30.08in /  1018.5hPa NNW 3mph /  4.8km/h 7mph /  11.3km/h 39% 0.00in /  0mm 407 W/m2
17:20 83.3 °F /  28.5 °C 56.5 °F /  13.6 °C 30.08in /  1018.5hPa North 2mph /  3.2km/h 7mph /  11.3km/h 40% 0.00in /  0mm 369 W/m2
17:30 83.5 °F /  28.6 °C 55.2 °F /  12.9 °C 30.08in /  1018.5hPa WNW 5mph /  8km/h 8mph /  12.9km/h 38% 0.00in /  0mm 330 W/m2
17:40 82.5 °F /  28.1 °C 54.3 °F /  12.4 °C 30.08in /  1018.5hPa West 6mph /  9.7km/h 9mph /  14.5km/h 38% 0.00in /  0mm 291 W/m2
17:50 82.3 °F /  27.9 °C 54.1 °F /  12.3 °C 30.08in /  1018.5hPa WSW 6mph /  9.7km/h 10mph /  16.1km/h 38% 0.00in /  0mm 254 W/m2
18:00 81.7 °F /  27.6 °C 53.6 °F /  12 °C 30.08in /  1018.5hPa West 5mph /  8km/h 10mph /  16.1km/h 38% 0.00in /  0mm 223 W/m2
18:10 81.3 °F /  27.4 °C 53.3 °F /  11.8 °C 30.08in /  1018.5hPa West 5mph /  8km/h 10mph /  16.1km/h 38% 0.00in /  0mm 194 W/m2
18:20 81 °F /  27.2 °C 53.7 °F /  12.1 °C 30.08in /  1018.5hPa WSW 5mph /  8km/h 8mph /  12.9km/h 39% 0.00in /  0mm 164 W/m2
18:30 80.3 °F /  26.8 °C 53.8 °F /  12.1 °C 30.08in /  1018.5hPa West 6mph /  9.7km/h 9mph /  14.5km/h 40% 0.00in /  0mm 136 W/m2
18:40 79.4 °F /  26.3 °C 54.3 °F /  12.4 °C 30.08in /  1018.5hPa West 3mph /  4.8km/h 9mph /  14.5km/h 42% 0.00in /  0mm 110 W/m2
18:50 79 °F /  26.1 °C 53.3 °F /  11.8 °C 30.08in /  1018.5hPa West 6mph /  9.7km/h 10mph /  16.1km/h 41% 0.00in /  0mm 87 W/m2
19:00 78.4 °F /  25.8 °C 53.4 °F /  11.9 °C 30.08in /  1018.5hPa WSW 5mph /  8km/h 8mph /  12.9km/h 42% 0.00in /  0mm 64 W/m2
19:10 77.8 °F /  25.4 °C 52.9 °F /  11.6 °C 30.09in /  1018.8hPa West 5mph /  8km/h 9mph /  14.5km/h 42% 0.00in /  0mm 46 W/m2
19:20 77.1 °F /  25.1 °C 52.8 °F /  11.6 °C 30.09in /  1018.8hPa West 6mph /  9.7km/h 8mph /  12.9km/h 43% 0.00in /  0mm 31 W/m2
19:30 76 °F /  24.4 °C 52.5 °F /  11.4 °C 30.09in /  1018.8hPa West 3mph /  4.8km/h 8mph /  12.9km/h 44% 0.00in /  0mm 19 W/m2
19:40 74.8 °F /  23.8 °C 51.5 °F /  10.8 °C 30.10in /  1019.2hPa West 3mph /  4.8km/h 7mph /  11.3km/h 44% 0.00in /  0mm 9 W/m2
19:50 74 °F /  23.3 °C 50.7 °F /  10.4 °C 30.10in /  1019.2hPa WNW 5mph /  8km/h 7mph /  11.3km/h 44% 0.00in /  0mm 0 W/m2
20:00 73.3 °F /  22.9 °C 50.7 °F /  10.4 °C 30.11in /  1019.5hPa NW 2mph /  3.2km/h 6mph /  9.7km/h 45% 0.00in /  0mm 0 W/m2
20:10 72.5 °F /  22.5 °C 51.1 °F /  10.6 °C 30.11in /  1019.5hPa West 1mph /  1.6km/h 4mph /  6.4km/h 47% 0.00in /  0mm 0 W/m2
20:20 71.3 °F /  21.8 °C 51.2 °F /  10.7 °C 30.11in /  1019.5hPa WSW 1mph /  1.6km/h 3mph /  4.8km/h 49% 0.00in /  0mm 0 W/m2
20:30 70 °F /  21.1 °C 51.6 °F /  10.9 °C 30.12in /  1019.9hPa South 1mph /  1.6km/h 4mph /  6.4km/h 52% 0.00in /  0mm 0 W/m2
20:40 68.8 °F /  20.4 °C 51.5 °F /  10.8 °C 30.12in /  1019.9hPa South 2mph /  3.2km/h 4mph /  6.4km/h 54% 0.00in /  0mm 0 W/m2
20:50 67.8 °F /  19.9 °C 51 °F /  10.6 °C 30.12in /  1019.9hPa SW 1mph /  1.6km/h 3mph /  4.8km/h 55% 0.00in /  0mm 0 W/m2
21:00 66.8 °F /  19.3 °C 51.1 °F /  10.6 °C 30.13in /  1020.2hPa SW 1mph /  1.6km/h 3mph /  4.8km/h 57% 0.00in /  0mm 0 W/m2
21:10 65.9 °F /  18.8 °C 50.7 °F /  10.4 °C 30.13in /  1020.2hPa SSW 2mph /  3.2km/h 5mph /  8km/h 58% 0.00in /  0mm 0 W/m2
21:20 65 °F /  18.3 °C 50.3 °F /  10.2 °C 30.13in /  1020.2hPa South 1mph /  1.6km/h 5mph /  8km/h 59% 0.00in /  0mm 0 W/m2
21:30 63.8 °F /  17.7 °C 49.7 °F /  9.8 °C 30.13in /  1020.2hPa Calm   2mph /  3.2km/h 60% 0.00in /  0mm 0 W/m2
21:40 63.1 °F /  17.3 °C 49.5 °F /  9.7 °C 30.14in /  1020.5hPa Calm   1mph /  1.6km/h 61% 0.00in /  0mm 0 W/m2
21:50 62.3 °F /  16.8 °C 49.5 °F /  9.7 °C 30.14in /  1020.5hPa Calm   1mph /  1.6km/h 63% 0.00in /  0mm 0 W/m2
22:00 61.5 °F /  16.4 °C 49.2 °F /  9.6 °C 30.14in /  1020.5hPa NNW 1mph /  1.6km/h 2mph /  3.2km/h 64% 0.00in /  0mm 0 W/m2
22:10 60.6 °F /  15.9 °C 48.3 °F /  9.1 °C 30.15in /  1020.9hPa Calm   2mph /  3.2km/h 64% 0.00in /  0mm 0 W/m2
22:20 59.7 °F /  15.4 °C 47.9 °F /  8.8 °C 30.15in /  1020.9hPa SW 1mph /  1.6km/h 3mph /  4.8km/h 65% 0.00in /  0mm 0 W/m2
22:30 59.2 °F /  15.1 °C 47.4 °F /  8.6 °C 30.15in /  1020.9hPa Calm   3mph /  4.8km/h 65% 0.00in /  0mm 0 W/m2
22:40 58.6 °F /  14.8 °C 47.7 °F /  8.7 °C 30.15in /  1020.9hPa SW 1mph /  1.6km/h 3mph /  4.8km/h 67% 0.00in /  0mm 0 W/m2
22:50 58.1 °F /  14.5 °C 47.6 °F /  8.7 °C 30.15in /  1020.9hPa WSW 1mph /  1.6km/h 3mph /  4.8km/h 68% 0.00in /  0mm 0 W/m2
23:00 57.6 °F /  14.2 °C 47.1 °F /  8.4 °C 30.15in /  1020.9hPa Calm   2mph /  3.2km/h 68% 0.00in /  0mm 0 W/m2
23:10 57.3 °F /  14.1 °C 46.9 °F /  8.3 °C 30.15in /  1020.9hPa Calm   2mph /  3.2km/h 68% 0.00in /  0mm 0 W/m2
23:20 56.8 °F /  13.8 °C 46.4 °F /  8 °C 30.15in /  1020.9hPa Calm   2mph /  3.2km/h 68% 0.00in /  0mm 0 W/m2
23:30 56.3 °F /  13.5 °C 46.3 °F /  7.9 °C 30.15in /  1020.9hPa Calm   2mph /  3.2km/h 69% 0.00in /  0mm 0 W/m2
23:40 55.8 °F /  13.2 °C 46.1 °F /  7.8 °C 30.15in /  1020.9hPa West 2mph /  3.2km/h 3mph /  4.8km/h 70% 0.00in /  0mm 0 W/m2
23:50 55.2 °F /  12.9 °C 46.3 °F /  7.9 °C 30.15in /  1020.9hPa Calm   2mph /  3.2km/h 72% 0.00in /  0mm 0 W/m2
Knjazevac, Serbia
Compliments of Weather Underground - 2 mb